sensor_id;sensor_type;location;lat;lon;timestamp;pressure;altitude;pressure_sealevel;temperature;humidity
63204;BME280;49297;43.210;27.914;2023-04-26T00:00:34;100184.56;;;13.58;75.06
63204;BME280;49297;43.210;27.914;2023-04-26T00:03:00;100181.91;;;13.58;75.03
63204;BME280;49297;43.210;27.914;2023-04-26T00:05:27;100185.25;;;13.60;74.74
63204;BME280;49297;43.210;27.914;2023-04-26T00:07:55;100186.91;;;13.61;74.38
63204;BME280;49297;43.210;27.914;2023-04-26T00:10:21;100179.75;;;13.61;74.35
63204;BME280;49297;43.210;27.914;2023-04-26T00:12:47;100183.91;;;13.64;74.45
63204;BME280;49297;43.210;27.914;2023-04-26T00:15:17;100180.41;;;13.63;74.50
63204;BME280;49297;43.210;27.914;2023-04-26T00:17:43;100194.56;;;13.64;74.41
63204;BME280;49297;43.210;27.914;2023-04-26T00:20:10;100187.22;;;13.66;74.00
63204;BME280;49297;43.210;27.914;2023-04-26T00:22:38;100193.38;;;13.66;74.41
63204;BME280;49297;43.210;27.914;2023-04-26T00:25:04;100188.88;;;13.67;74.35
63204;BME280;49297;43.210;27.914;2023-04-26T00:27:30;100191.38;;;13.68;74.44
63204;BME280;49297;43.210;27.914;2023-04-26T00:29:56;100185.88;;;13.70;74.75
63204;BME280;49297;43.210;27.914;2023-04-26T00:32:22;100184.25;;;13.69;74.98
63204;BME280;49297;43.210;27.914;2023-04-26T00:34:48;100184.25;;;13.69;75.21
63204;BME280;49297;43.210;27.914;2023-04-26T00:37:15;100190.53;;;13.68;75.00
63204;BME280;49297;43.210;27.914;2023-04-26T00:39:41;100186.41;;;13.65;75.37
63204;BME280;49297;43.210;27.914;2023-04-26T00:42:07;100183.25;;;13.62;75.00
63204;BME280;49297;43.210;27.914;2023-04-26T00:44:35;100180.28;;;13.57;75.27
63204;BME280;49297;43.210;27.914;2023-04-26T00:47:07;100191.56;;;13.50;75.07
63204;BME280;49297;43.210;27.914;2023-04-26T00:49:33;100185.13;;;13.45;74.87
63204;BME280;49297;43.210;27.914;2023-04-26T00:51:59;100185.47;;;13.33;74.86
63204;BME280;49297;43.210;27.914;2023-04-26T00:54:27;100184.25;;;13.28;75.20
63204;BME280;49297;43.210;27.914;2023-04-26T00:56:54;100188.25;;;13.24;75.44
63204;BME280;49297;43.210;27.914;2023-04-26T00:59:20;100178.31;;;13.18;75.65
63204;BME280;49297;43.210;27.914;2023-04-26T01:01:47;100172.66;;;13.12;75.67
63204;BME280;49297;43.210;27.914;2023-04-26T01:04:14;100171.16;;;13.10;75.76
63204;BME280;49297;43.210;27.914;2023-04-26T01:06:41;100173.50;;;13.05;76.23
63204;BME280;49297;43.210;27.914;2023-04-26T01:09:09;100175.97;;;13.06;76.24
63204;BME280;49297;43.210;27.914;2023-04-26T01:11:39;100173.31;;;13.06;76.30
63204;BME280;49297;43.210;27.914;2023-04-26T01:14:08;100180.31;;;13.07;76.45
63204;BME280;49297;43.210;27.914;2023-04-26T01:16:34;100174.00;;;13.08;76.50
63204;BME280;49297;43.210;27.914;2023-04-26T01:19:10;100181.13;;;13.08;76.44
63204;BME280;49297;43.210;27.914;2023-04-26T01:21:40;100179.47;;;13.07;76.16
63204;BME280;49297;43.210;27.914;2023-04-26T01:24:11;100177.97;;;13.04;76.09
63204;BME280;49297;43.210;27.914;2023-04-26T01:26:38;100173.69;;;13.03;76.65
63204;BME280;49297;43.210;27.914;2023-04-26T01:29:17;100178.63;;;13.06;76.32
63204;BME280;49297;43.210;27.914;2023-04-26T01:31:44;100167.19;;;13.06;76.30
63204;BME280;49297;43.210;27.914;2023-04-26T01:34:11;100162.69;;;13.06;76.25
63204;BME280;49297;43.210;27.914;2023-04-26T01:36:45;100170.66;;;13.06;76.51
63204;BME280;49297;43.210;27.914;2023-04-26T01:39:11;100161.03;;;13.05;76.34
63204;BME280;49297;43.210;27.914;2023-04-26T01:41:37;100157.22;;;13.08;76.27
63204;BME280;49297;43.210;27.914;2023-04-26T01:44:04;100152.75;;;13.08;76.47
63204;BME280;49297;43.210;27.914;2023-04-26T01:46:30;100152.75;;;13.08;76.36
63204;BME280;49297;43.210;27.914;2023-04-26T01:48:55;100155.22;;;13.10;76.13
63204;BME280;49297;43.210;27.914;2023-04-26T01:51:21;100152.38;;;13.11;76.48
63204;BME280;49297;43.210;27.914;2023-04-26T01:53:48;100146.09;;;13.12;76.28
63204;BME280;49297;43.210;27.914;2023-04-26T01:56:14;100152.06;;;13.14;76.08
63204;BME280;49297;43.210;27.914;2023-04-26T01:58:40;100148.59;;;13.14;76.06
63204;BME280;49297;43.210;27.914;2023-04-26T02:01:08;100158.38;;;13.13;75.83
63204;BME280;49297;43.210;27.914;2023-04-26T02:03:35;100152.06;;;13.14;75.94
63204;BME280;49297;43.210;27.914;2023-04-26T02:06:01;100149.41;;;13.14;75.77
63204;BME280;49297;43.210;27.914;2023-04-26T02:08:29;100149.41;;;13.14;75.30
63204;BME280;49297;43.210;27.914;2023-04-26T02:10:56;100143.28;;;13.14;74.89
63204;BME280;49297;43.210;27.914;2023-04-26T02:13:23;100155.91;;;13.12;74.57
63204;BME280;49297;43.210;27.914;2023-04-26T02:15:49;100151.56;;;13.11;74.37
63204;BME280;49297;43.210;27.914;2023-04-26T02:18:16;100142.13;;;13.08;74.42
63204;BME280;49297;43.210;27.914;2023-04-26T02:20:43;100144.94;;;13.07;74.43
63204;BME280;49297;43.210;27.914;2023-04-26T02:23:10;100154.41;;;13.01;74.54
63204;BME280;49297;43.210;27.914;2023-04-26T02:25:37;100150.25;;;12.99;74.59
63204;BME280;49297;43.210;27.914;2023-04-26T02:28:06;100155.22;;;12.93;74.58
63204;BME280;49297;43.210;27.914;2023-04-26T02:30:32;100161.22;;;12.87;74.59
63204;BME280;49297;43.210;27.914;2023-04-26T02:32:58;100158.06;;;12.84;74.87
63204;BME280;49297;43.210;27.914;2023-04-26T02:35:24;100156.56;;;12.81;74.81
63204;BME280;49297;43.210;27.914;2023-04-26T02:37:51;100156.06;;;12.77;75.02
63204;BME280;49297;43.210;27.914;2023-04-26T02:40:18;100155.06;;;12.79;75.00
63204;BME280;49297;43.210;27.914;2023-04-26T02:42:44;100158.72;;;12.77;75.49
63204;BME280;49297;43.210;27.914;2023-04-26T02:45:12;100151.75;;;12.76;75.46
63204;BME280;49297;43.210;27.914;2023-04-26T02:47:38;100152.06;;;12.73;75.51
63204;BME280;49297;43.210;27.914;2023-04-26T02:50:06;100152.22;;;12.72;75.50
63204;BME280;49297;43.210;27.914;2023-04-26T02:52:36;100153.25;;;12.71;75.67
63204;BME280;49297;43.210;27.914;2023-04-26T02:55:04;100151.56;;;12.70;76.00
63204;BME280;49297;43.210;27.914;2023-04-26T02:57:31;100149.91;;;12.69;75.61
63204;BME280;49297;43.210;27.914;2023-04-26T02:59:58;100148.75;;;12.71;75.62
63204;BME280;49297;43.210;27.914;2023-04-26T03:02:25;100147.75;;;12.72;75.63
63204;BME280;49297;43.210;27.914;2023-04-26T03:04:50;100146.94;;;12.72;75.53
63204;BME280;49297;43.210;27.914;2023-04-26T03:07:18;100142.63;;;12.71;75.32
63204;BME280;49297;43.210;27.914;2023-04-26T03:09:44;100138.28;;;12.70;75.58
63204;BME280;49297;43.210;27.914;2023-04-26T03:12:10;100142.44;;;12.72;75.59
63204;BME280;49297;43.210;27.914;2023-04-26T03:14:36;100145.44;;;12.69;75.91
63204;BME280;49297;43.210;27.914;2023-04-26T03:17:10;100139.28;;;12.69;75.87
63204;BME280;49297;43.210;27.914;2023-04-26T03:19:37;100145.59;;;12.68;76.01
63204;BME280;49297;43.210;27.914;2023-04-26T03:22:10;100144.09;;;12.65;76.13
63204;BME280;49297;43.210;27.914;2023-04-26T03:24:44;100138.78;;;12.65;76.20
63204;BME280;49297;43.210;27.914;2023-04-26T03:27:11;100148.41;;;12.66;76.28
63204;BME280;49297;43.210;27.914;2023-04-26T03:29:38;100145.59;;;12.68;76.27
63204;BME280;49297;43.210;27.914;2023-04-26T03:32:12;100143.09;;;12.66;75.77
63204;BME280;49297;43.210;27.914;2023-04-26T03:34:39;100146.09;;;12.63;76.36
63204;BME280;49297;43.210;27.914;2023-04-26T03:37:05;100143.44;;;12.63;76.06
63204;BME280;49297;43.210;27.914;2023-04-26T03:39:35;100135.31;;;12.65;76.01
63204;BME280;49297;43.210;27.914;2023-04-26T03:42:01;100138.78;;;12.65;76.35
63204;BME280;49297;43.210;27.914;2023-04-26T03:44:30;100142.09;;;12.67;76.28
63204;BME280;49297;43.210;27.914;2023-04-26T03:46:57;100140.13;;;12.69;76.09
63204;BME280;49297;43.210;27.914;2023-04-26T03:49:24;100139.28;;;12.69;75.68
63204;BME280;49297;43.210;27.914;2023-04-26T03:51:52;100144.09;;;12.65;75.75
63204;BME280;49297;43.210;27.914;2023-04-26T03:54:18;100143.75;;;12.60;75.98
63204;BME280;49297;43.210;27.914;2023-04-26T03:56:44;100144.59;;;12.61;75.86
63204;BME280;49297;43.210;27.914;2023-04-26T03:59:11;100148.41;;;12.66;76.25
63204;BME280;49297;43.210;27.914;2023-04-26T04:01:37;100144.94;;;12.66;76.03
63204;BME280;49297;43.210;27.914;2023-04-26T04:04:02;100152.56;;;12.69;75.88
63204;BME280;49297;43.210;27.914;2023-04-26T04:06:28;100142.94;;;12.68;75.84
63204;BME280;49297;43.210;27.914;2023-04-26T04:08:57;100150.06;;;12.67;75.81
63204;BME280;49297;43.210;27.914;2023-04-26T04:11:23;100148.41;;;12.66;75.62
63204;BME280;49297;43.210;27.914;2023-04-26T04:13:50;100156.88;;;12.62;75.64
63204;BME280;49297;43.210;27.914;2023-04-26T04:16:16;100167.84;;;12.59;75.46
63204;BME280;49297;43.210;27.914;2023-04-26T04:18:42;100170.81;;;12.55;76.09
63204;BME280;49297;43.210;27.914;2023-04-26T04:21:08;100165.66;;;12.54;76.09
63204;BME280;49297;43.210;27.914;2023-04-26T04:23:35;100155.72;;;12.56;76.25
63204;BME280;49297;43.210;27.914;2023-04-26T04:26:07;100172.31;;;12.58;76.16
63204;BME280;49297;43.210;27.914;2023-04-26T04:28:39;100167.50;;;12.53;76.02
63204;BME280;49297;43.210;27.914;2023-04-26T04:31:15;100161.34;;;12.53;75.91
63204;BME280;49297;43.210;27.914;2023-04-26T04:33:41;100159.69;;;12.52;75.44
63204;BME280;49297;43.210;27.914;2023-04-26T04:36:09;100158.53;;;12.54;75.14
63204;BME280;49297;43.210;27.914;2023-04-26T04:38:35;100164.00;;;12.61;75.26
63204;BME280;49297;43.210;27.914;2023-04-26T04:41:00;100167.50;;;12.70;75.32
63204;BME280;49297;43.210;27.914;2023-04-26T04:43:26;100171.31;;;12.75;74.91
63204;BME280;49297;43.210;27.914;2023-04-26T04:45:52;100164.88;;;12.78;74.69
63204;BME280;49297;43.210;27.914;2023-04-26T04:48:18;100174.50;;;12.87;74.87
63204;BME280;49297;43.210;27.914;2023-04-26T04:50:46;100162.22;;;12.94;74.84
63204;BME280;49297;43.210;27.914;2023-04-26T04:53:12;100161.03;;;12.97;74.31
63204;BME280;49297;43.210;27.914;2023-04-26T04:55:41;100163.53;;;12.99;73.99
63204;BME280;49297;43.210;27.914;2023-04-26T04:58:08;100160.38;;;13.03;73.97
63204;BME280;49297;43.210;27.914;2023-04-26T05:00:34;100163.38;;;13.08;73.96
63204;BME280;49297;43.210;27.914;2023-04-26T05:03:03;100173.50;;;13.13;74.14
63204;BME280;49297;43.210;27.914;2023-04-26T05:05:30;100171.50;;;13.15;74.42
63204;BME280;49297;43.210;27.914;2023-04-26T05:07:55;100168.00;;;13.23;74.39
63204;BME280;49297;43.210;27.914;2023-04-26T05:10:22;100178.47;;;13.32;74.31
63204;BME280;49297;43.210;27.914;2023-04-26T05:12:49;100178.00;;;13.37;74.23
63204;BME280;49297;43.210;27.914;2023-04-26T05:15:15;100170.34;;;13.42;73.78
63204;BME280;49297;43.210;27.914;2023-04-26T05:17:41;100177.97;;;13.45;73.47
63204;BME280;49297;43.210;27.914;2023-04-26T05:20:07;100171.97;;;13.51;73.26
63204;BME280;49297;43.210;27.914;2023-04-26T05:22:33;100179.91;;;13.60;73.65
63204;BME280;49297;43.210;27.914;2023-04-26T05:25:02;100179.91;;;13.68;73.84
63204;BME280;49297;43.210;27.914;2023-04-26T05:27:36;100178.38;;;13.74;73.35
63204;BME280;49297;43.210;27.914;2023-04-26T05:30:04;100175.06;;;13.80;73.19
63204;BME280;49297;43.210;27.914;2023-04-26T05:32:30;100179.38;;;13.81;72.81
63204;BME280;49297;43.210;27.914;2023-04-26T05:34:57;100183.03;;;13.80;72.28
63204;BME280;49297;43.210;27.914;2023-04-26T05:37:24;100180.53;;;13.78;72.10
63204;BME280;49297;43.210;27.914;2023-04-26T05:39:50;100182.56;;;13.76;72.42
63204;BME280;49297;43.210;27.914;2023-04-26T05:42:16;100187.19;;;13.74;72.78
63204;BME280;49297;43.210;27.914;2023-04-26T05:44:42;100193.53;;;13.73;73.00
63204;BME280;49297;43.210;27.914;2023-04-26T05:47:12;100188.22;;;13.73;72.81
63204;BME280;49297;43.210;27.914;2023-04-26T05:49:37;100187.19;;;13.74;73.20
63204;BME280;49297;43.210;27.914;2023-04-26T05:52:05;100194.03;;;13.77;72.82
63204;BME280;49297;43.210;27.914;2023-04-26T05:54:33;100194.66;;;13.79;72.97
63204;BME280;49297;43.210;27.914;2023-04-26T05:56:59;100189.69;;;13.76;72.80
63204;BME280;49297;43.210;27.914;2023-04-26T05:59:27;100198.84;;;13.73;72.58
63204;BME280;49297;43.210;27.914;2023-04-26T06:01:59;100201.84;;;13.70;72.66
63204;BME280;49297;43.210;27.914;2023-04-26T06:04:27;100203.84;;;13.68;72.87
63204;BME280;49297;43.210;27.914;2023-04-26T06:06:53;100206.66;;;13.66;73.01
63204;BME280;49297;43.210;27.914;2023-04-26T06:09:19;100207.16;;;13.70;73.29
63204;BME280;49297;43.210;27.914;2023-04-26T06:11:44;100208.47;;;13.74;73.81
63204;BME280;49297;43.210;27.914;2023-04-26T06:14:12;100213.28;;;13.79;73.90
63204;BME280;49297;43.210;27.914;2023-04-26T06:16:39;100211.44;;;13.79;73.76
63204;BME280;49297;43.210;27.914;2023-04-26T06:19:06;100212.63;;;13.77;74.04
63204;BME280;49297;43.210;27.914;2023-04-26T06:21:32;100215.16;;;13.70;74.01
63204;BME280;49297;43.210;27.914;2023-04-26T06:23:59;100211.81;;;13.68;74.83
63204;BME280;49297;43.210;27.914;2023-04-26T06:26:26;100217.16;;;13.68;74.99
63204;BME280;49297;43.210;27.914;2023-04-26T06:28:53;100211.81;;;13.68;75.20
63204;BME280;49297;43.210;27.914;2023-04-26T06:31:20;100214.00;;;13.73;75.42
63204;BME280;49297;43.210;27.914;2023-04-26T06:33:47;100223.94;;;13.79;75.80
63204;BME280;49297;43.210;27.914;2023-04-26T06:36:13;100222.59;;;13.83;75.60
63204;BME280;49297;43.210;27.914;2023-04-26T06:38:40;100223.06;;;13.86;75.21
63204;BME280;49297;43.210;27.914;2023-04-26T06:41:08;100220.41;;;13.86;74.87
63204;BME280;49297;43.210;27.914;2023-04-26T06:43:34;100215.09;;;13.86;75.49
63204;BME280;49297;43.210;27.914;2023-04-26T06:46:03;100217.59;;;13.88;75.28
63204;BME280;49297;43.210;27.914;2023-04-26T06:48:31;100224.25;;;13.92;75.95
63204;BME280;49297;43.210;27.914;2023-04-26T06:50:57;100229.03;;;13.97;76.43
63204;BME280;49297;43.210;27.914;2023-04-26T06:53:23;100225.88;;;14.01;76.28
63204;BME280;49297;43.210;27.914;2023-04-26T06:55:49;100223.53;;;14.06;76.19
63204;BME280;49297;43.210;27.914;2023-04-26T06:58:17;100226.47;;;14.12;75.46
63204;BME280;49297;43.210;27.914;2023-04-26T07:00:43;100224.66;;;14.12;74.77
63204;BME280;49297;43.210;27.914;2023-04-26T07:03:09;100227.50;;;14.11;74.24
63204;BME280;49297;43.210;27.914;2023-04-26T07:05:38;100231.47;;;14.15;74.29
63204;BME280;49297;43.210;27.914;2023-04-26T07:08:04;100241.06;;;14.24;74.49
63204;BME280;49297;43.210;27.914;2023-04-26T07:10:30;100228.22;;;14.36;74.92
63204;BME280;49297;43.210;27.914;2023-04-26T07:12:56;100234.97;;;14.46;73.93
63204;BME280;49297;43.210;27.914;2023-04-26T07:15:22;100241.28;;;14.54;73.57
63204;BME280;49297;43.210;27.914;2023-04-26T07:17:48;100229.75;;;14.61;73.12
63204;BME280;49297;43.210;27.914;2023-04-26T07:20:14;100235.06;;;14.70;73.57
63204;BME280;49297;43.210;27.914;2023-04-26T07:22:45;100236.66;;;14.79;73.02
63204;BME280;49297;43.210;27.914;2023-04-26T07:25:11;100235.97;;;14.85;72.50
63204;BME280;49297;43.210;27.914;2023-04-26T07:27:38;100229.09;;;14.91;71.94
63204;BME280;49297;43.210;27.914;2023-04-26T07:30:07;100230.72;;;14.92;70.94
63204;BME280;49297;43.210;27.914;2023-04-26T07:32:35;100225.94;;;14.87;70.93
63204;BME280;49297;43.210;27.914;2023-04-26T07:35:05;100237.78;;;14.84;70.89
63204;BME280;49297;43.210;27.914;2023-04-26T07:37:33;100236.94;;;14.84;71.22
63204;BME280;49297;43.210;27.914;2023-04-26T07:40:01;100240.75;;;14.90;70.67
63204;BME280;49297;43.210;27.914;2023-04-26T07:42:27;100240.88;;;14.96;70.98
63204;BME280;49297;43.210;27.914;2023-04-26T07:44:53;100234.16;;;15.00;70.22
63204;BME280;49297;43.210;27.914;2023-04-26T07:47:19;100237.13;;;15.06;70.33
63204;BME280;49297;43.210;27.914;2023-04-26T07:49:45;100229.44;;;15.11;68.90
63204;BME280;49297;43.210;27.914;2023-04-26T07:52:12;100235.06;;;15.16;68.47
63204;BME280;49297;43.210;27.914;2023-04-26T07:54:46;100236.81;;;15.23;68.05
63204;BME280;49297;43.210;27.914;2023-04-26T07:57:12;100242.38;;;15.37;68.05
63204;BME280;49297;43.210;27.914;2023-04-26T07:59:38;100230.63;;;15.46;66.98
63204;BME280;49297;43.210;27.914;2023-04-26T08:02:04;100233.94;;;15.63;67.53
63204;BME280;49297;43.210;27.914;2023-04-26T08:04:32;100244.97;;;15.83;67.06
63204;BME280;49297;43.210;27.914;2023-04-26T08:07:00;100237.25;;;15.88;65.03
63204;BME280;49297;43.210;27.914;2023-04-26T08:09:28;100239.72;;;15.90;64.41
63204;BME280;49297;43.210;27.914;2023-04-26T08:11:56;100236.97;;;15.98;63.52
63204;BME280;49297;43.210;27.914;2023-04-26T08:14:22;100231.53;;;16.06;63.75
63204;BME280;49297;43.210;27.914;2023-04-26T08:16:48;100223.84;;;16.18;64.22
63204;BME280;49297;43.210;27.914;2023-04-26T08:19:13;100228.94;;;16.28;63.39
63204;BME280;49297;43.210;27.914;2023-04-26T08:21:39;100223.28;;;16.37;63.46
63204;BME280;49297;43.210;27.914;2023-04-26T08:24:06;100226.50;;;16.48;63.34
63204;BME280;49297;43.210;27.914;2023-04-26T08:26:33;100230.25;;;16.53;62.30
63204;BME280;49297;43.210;27.914;2023-04-26T08:29:00;100224.25;;;16.51;61.41
63204;BME280;49297;43.210;27.914;2023-04-26T08:31:26;100223.91;;;16.54;61.58
63204;BME280;49297;43.210;27.914;2023-04-26T08:33:51;100220.28;;;16.62;61.46
63204;BME280;49297;43.210;27.914;2023-04-26T08:36:18;100224.84;;;16.68;62.01
63204;BME280;49297;43.210;27.914;2023-04-26T08:38:45;100220.16;;;16.70;62.54
63204;BME280;49297;43.210;27.914;2023-04-26T08:41:12;100224.66;;;16.70;62.37
63204;BME280;49297;43.210;27.914;2023-04-26T08:43:48;100222.19;;;16.68;62.15
63204;BME280;49297;43.210;27.914;2023-04-26T08:46:17;100231.03;;;16.69;62.05
63204;BME280;49297;43.210;27.914;2023-04-26T08:48:50;100227.34;;;16.70;61.67
63204;BME280;49297;43.210;27.914;2023-04-26T08:51:20;100227.16;;;16.71;61.39
63204;BME280;49297;43.210;27.914;2023-04-26T08:53:49;100227.59;;;16.75;61.77
63204;BME280;49297;43.210;27.914;2023-04-26T08:56:17;100231.31;;;16.74;61.42
63204;BME280;49297;43.210;27.914;2023-04-26T08:58:44;100228.56;;;16.67;60.95
63204;BME280;49297;43.210;27.914;2023-04-26T09:01:13;100227.47;;;16.62;61.39
63204;BME280;49297;43.210;27.914;2023-04-26T09:03:40;100229.88;;;16.56;62.46
63204;BME280;49297;43.210;27.914;2023-04-26T09:06:06;100231.91;;;16.54;62.80
63204;BME280;49297;43.210;27.914;2023-04-26T09:08:35;100232.72;;;16.55;63.74
63204;BME280;49297;43.210;27.914;2023-04-26T09:11:02;100232.28;;;16.51;63.57
63204;BME280;49297;43.210;27.914;2023-04-26T09:13:29;100233.69;;;16.47;64.03
63204;BME280;49297;43.210;27.914;2023-04-26T09:15:55;100229.53;;;16.45;64.83
63204;BME280;49297;43.210;27.914;2023-04-26T09:18:22;100230.28;;;16.39;65.15
63204;BME280;49297;43.210;27.914;2023-04-26T09:21:06;100224.69;;;16.33;64.47
63204;BME280;49297;43.210;27.914;2023-04-26T09:23:32;100234.91;;;16.30;64.07
63204;BME280;49297;43.210;27.914;2023-04-26T09:26:20;100237.41;;;16.31;64.62
63204;BME280;49297;43.210;27.914;2023-04-26T09:29:15;100230.56;;;16.29;64.08
63204;BME280;49297;43.210;27.914;2023-04-26T09:31:48;100236.38;;;16.32;63.82
63204;BME280;49297;43.210;27.914;2023-04-26T09:34:14;100233.50;;;16.34;63.28
63204;BME280;49297;43.210;27.914;2023-04-26T09:39:35;100233.78;;;16.39;63.38
63204;BME280;49297;43.210;27.914;2023-04-26T09:42:06;100234.41;;;16.41;64.33
63204;BME280;49297;43.210;27.914;2023-04-26T09:44:35;100225.75;;;16.39;65.23
63204;BME280;49297;43.210;27.914;2023-04-26T09:47:06;100225.88;;;16.31;65.74
63204;BME280;49297;43.210;27.914;2023-04-26T09:49:50;100221.13;;;16.11;66.72
63204;BME280;49297;43.210;27.914;2023-04-26T09:52:18;100225.34;;;16.06;67.54
63204;BME280;49297;43.210;27.914;2023-04-26T09:57:14;100235.09;;;15.98;68.49
63204;BME280;49297;43.210;27.914;2023-04-26T09:59:46;100231.78;;;15.96;68.65
63204;BME280;49297;43.210;27.914;2023-04-26T10:02:20;100230.63;;;15.99;69.09
63204;BME280;49297;43.210;27.914;2023-04-26T10:04:49;100230.22;;;16.02;69.88
63204;BME280;49297;43.210;27.914;2023-04-26T10:07:18;100226.91;;;16.00;69.42
63204;BME280;49297;43.210;27.914;2023-04-26T10:09:46;100231.25;;;16.01;69.54
63204;BME280;49297;43.210;27.914;2023-04-26T10:12:13;100226.56;;;16.03;69.59
63204;BME280;49297;43.210;27.914;2023-04-26T10:14:42;100227.38;;;16.04;69.35
63204;BME280;49297;43.210;27.914;2023-04-26T10:17:15;100227.75;;;16.01;69.39
63204;BME280;49297;43.210;27.914;2023-04-26T10:19:44;100223.25;;;16.01;70.09
63204;BME280;49297;43.210;27.914;2023-04-26T10:22:36;100220.84;;;16.06;70.39
63204;BME280;49297;43.210;27.914;2023-04-26T10:25:07;100223.97;;;16.10;70.28
63204;BME280;49297;43.210;27.914;2023-04-26T10:30:14;100221.13;;;16.11;70.60
63204;BME280;49297;43.210;27.914;2023-04-26T10:35:27;100216.31;;;16.22;69.29
63204;BME280;49297;43.210;27.914;2023-04-26T10:45:38;100221.34;;;16.68;67.43
63204;BME280;49297;43.210;27.914;2023-04-26T10:48:21;100219.75;;;16.88;68.11
63204;BME280;49297;43.210;27.914;2023-04-26T10:53:27;100218.09;;;16.87;66.06
63204;BME280;49297;43.210;27.914;2023-04-26T10:55:53;100221.09;;;16.99;65.74
63204;BME280;49297;43.210;27.914;2023-04-26T10:58:30;100222.53;;;17.02;65.92
63204;BME280;49297;43.210;27.914;2023-04-26T11:01:16;100223.50;;;17.16;65.50
63204;BME280;49297;43.210;27.914;2023-04-26T11:04:16;100217.81;;;17.25;64.70
63204;BME280;49297;43.210;27.914;2023-04-26T11:06:53;100219.72;;;17.31;64.40
63204;BME280;49297;43.210;27.914;2023-04-26T11:12:13;100216.88;;;17.68;64.55
63204;BME280;49297;43.210;27.914;2023-04-26T11:14:44;100217.53;;;18.05;63.30
63204;BME280;49297;43.210;27.914;2023-04-26T11:17:12;100215.22;;;18.43;62.01
63204;BME280;49297;43.210;27.914;2023-04-26T11:19:40;100223.34;;;18.70;61.60
63204;BME280;49297;43.210;27.914;2023-04-26T11:22:08;100217.97;;;18.77;59.57
63204;BME280;49297;43.210;27.914;2023-04-26T11:24:34;100218.59;;;18.72;60.15
63204;BME280;49297;43.210;27.914;2023-04-26T11:27:10;100215.91;;;18.72;60.11
63204;BME280;49297;43.210;27.914;2023-04-26T11:29:37;100217.75;;;18.65;60.67
63204;BME280;49297;43.210;27.914;2023-04-26T11:32:03;100220.44;;;18.65;60.78
63204;BME280;49297;43.210;27.914;2023-04-26T11:36:58;100220.81;;;18.49;60.28
63204;BME280;49297;43.210;27.914;2023-04-26T11:39:25;100219.09;;;18.27;60.43
63204;BME280;49297;43.210;27.914;2023-04-26T11:41:55;100222.41;;;17.95;60.10
63204;BME280;49297;43.210;27.914;2023-04-26T11:44:29;100216.41;;;17.58;60.40
63204;BME280;49297;43.210;27.914;2023-04-26T11:46:55;100212.19;;;17.42;61.39
63204;BME280;49297;43.210;27.914;2023-04-26T11:49:21;100214.00;;;17.35;62.27
63204;BME280;49297;43.210;27.914;2023-04-26T11:51:47;100204.69;;;17.30;62.62
63204;BME280;49297;43.210;27.914;2023-04-26T11:54:30;100203.47;;;17.33;62.62
63204;BME280;49297;43.210;27.914;2023-04-26T11:56:58;100207.16;;;17.32;62.55
63204;BME280;49297;43.210;27.914;2023-04-26T11:59:29;100215.00;;;17.34;62.47
63204;BME280;49297;43.210;27.914;2023-04-26T12:02:04;100204.88;;;17.29;62.60
63204;BME280;49297;43.210;27.914;2023-04-26T12:04:31;100213.75;;;17.29;62.95
63204;BME280;49297;43.210;27.914;2023-04-26T12:06:57;100211.19;;;17.21;62.58
63204;BME280;49297;43.210;27.914;2023-04-26T12:09:26;100211.34;;;17.13;62.77
63204;BME280;49297;43.210;27.914;2023-04-26T12:12:03;100209.94;;;16.96;63.39
63204;BME280;49297;43.210;27.914;2023-04-26T12:14:33;100207.22;;;16.89;63.96
63204;BME280;49297;43.210;27.914;2023-04-26T12:17:01;100215.97;;;16.83;64.25
63204;BME280;49297;43.210;27.914;2023-04-26T12:19:34;100217.31;;;16.72;63.77
63204;BME280;49297;43.210;27.914;2023-04-26T12:22:02;100214.91;;;16.41;64.29
63204;BME280;49297;43.210;27.914;2023-04-26T12:24:31;100215.41;;;16.14;65.22
63204;BME280;49297;43.210;27.914;2023-04-26T12:27:07;100221.75;;;15.98;65.83
63204;BME280;49297;43.210;27.914;2023-04-26T12:29:34;100216.81;;;15.95;66.78
63204;BME280;49297;43.210;27.914;2023-04-26T12:32:00;100217.66;;;15.81;67.10
63204;BME280;49297;43.210;27.914;2023-04-26T12:34:26;100220.66;;;15.78;67.07
63204;BME280;49297;43.210;27.914;2023-04-26T12:36:52;100220.22;;;15.74;66.55
63204;BME280;49297;43.210;27.914;2023-04-26T12:39:19;100209.22;;;15.54;67.16
63204;BME280;49297;43.210;27.914;2023-04-26T12:41:46;100216.06;;;15.34;66.93
63204;BME280;49297;43.210;27.914;2023-04-26T12:44:12;100216.41;;;15.31;67.68
63204;BME280;49297;43.210;27.914;2023-04-26T12:46:39;100216.34;;;15.39;67.80
63204;BME280;49297;43.210;27.914;2023-04-26T12:49:05;100206.03;;;15.36;68.03
63204;BME280;49297;43.210;27.914;2023-04-26T12:51:39;100205.97;;;15.44;68.23
63204;BME280;49297;43.210;27.914;2023-04-26T12:54:05;100214.81;;;15.45;67.97
63204;BME280;49297;43.210;27.914;2023-04-26T12:56:32;100201.41;;;15.53;68.43
63204;BME280;49297;43.210;27.914;2023-04-26T12:58:59;100208.19;;;15.70;67.73
63204;BME280;49297;43.210;27.914;2023-04-26T13:01:25;100200.25;;;15.85;67.72
63204;BME280;49297;43.210;27.914;2023-04-26T13:03:52;100201.31;;;16.21;67.23
63204;BME280;49297;43.210;27.914;2023-04-26T13:06:20;100198.09;;;16.47;65.86
63204;BME280;49297;43.210;27.914;2023-04-26T13:08:47;100189.81;;;16.78;65.19
63204;BME280;49297;43.210;27.914;2023-04-26T13:11:13;100191.41;;;17.16;64.08